Flight Track Log - Related Links

Times and Time Zones

All times are in EDT time to prevent confusion due to time zone crossing. See the CHQ6151 flight status page for this flight to view local times or setup timezone preferences in your user account.

Time Position Orientation Groundspeed Altitude Reporting Facility
EDT Latitude Longitude Course Direction KTS MPH feet Rate Location/Type
Tue 03:40:13 PM 40.0039 -82.9131 21° North 159 183 1,200  Level Indianapolis Center
Tue 03:41:33 PM 40.0108 -82.9961 276° West 189 217 3,600 1,567 Climbing Indianapolis Center
Tue 03:42:27 PM 40.0225 -83.0681 282° West 226 260 4,700 1,759 Climbing Indianapolis Center
Tue 03:43:00 PM 40.3091 -82.6507 29° Northeast  Level FlightAware Approximate
Tue 03:43:29 PM 40.0839 -83.1064 334° Northwest 263 303 7,000  Level Indianapolis Center
Tue 03:44:00 PM 40.3944 -82.5967 25° Northeast  Level FlightAware Approximate
Tue 03:44:31 PM 40.1417 -83.0353 43° Northeast 282 325 9,200  Level Indianapolis Center
Tue 03:45:00 PM 40.4823 -82.5505 21° North  Level FlightAware Approximate
Tue 03:45:34 PM 40.2039 -82.9339 51° Northeast 293 337 11,300  Level Indianapolis Center
Tue 03:46:36 PM 40.2606 -82.8444 50° Northeast 311 358 12,600 823 Climbing Indianapolis Center
Tue 03:47:38 PM 40.3214 -82.7461 51° Northeast 338 389 13,000 194 Climbing Indianapolis Center
Tue 03:48:40 PM 40.3833 -82.6456 51° Northeast 351 404 13,000  Level Indianapolis Center
Tue 03:49:42 PM 40.4578 -82.5714 37° Northeast 348 400 13,000  Level Indianapolis Center
Tue 03:50:44 PM 40.5600 -82.5236 20° North 332 382 13,000  Level Indianapolis Center
Tue 03:51:46 PM 40.6458 -82.4858 18° North 327 376 13,000  Level Indianapolis Center
Tue 03:52:48 PM 40.7308 -82.4489 18° North 326 375 13,000  Level Indianapolis Center
Tue 03:53:59 PM 40.8322 -82.4011 20° North 327 376 13,000  Level Cleveland Center
Tue 03:55:01 PM 40.9192 -82.3628 18° North 327 376 13,000  Level Cleveland Center
Tue 03:56:02 PM 41.0047 -82.3231 19° North 327 376 13,000  Level Cleveland Center
Tue 03:57:04 PM 41.0919 -82.2833 19° North 328 377 13,000  Level Cleveland Center
Tue 03:58:07 PM 41.1794 -82.2436 19° North 328 377 13,000  Level Cleveland Center
Tue 03:59:09 PM 41.2858 -82.2319 North 334 384 13,000  Level Cleveland Center
Tue 04:00:11 PM 41.3700 -82.2672 343° North 328 377 13,000  Level Cleveland Center
Tue 04:01:13 PM 41.4286 -82.3508 313° West 314 361 13,000  Level Cleveland Center
Tue 04:02:15 PM 41.4883 -82.4356 313° West 311 358 13,000  Level Cleveland Center
Tue 04:02:49 PM 41.5233 -82.4942 309° West 314 361 13,000 -97 Level Cleveland Center
Tue 04:03:17 PM 41.5467 -82.5217 319° Northwest 311 358 12,900 -667 Descending Cleveland Center
Tue 04:04:19 PM 41.6117 -82.6122 314° West 338 389 12,000 -415 Descending Cleveland Center
Tue 04:05:27 PM 41.6981 -82.7425 312° West 347 399 12,000  Level Cleveland Center
Tue 04:06:23 PM 41.7572 -82.8175 317° Northwest 347 399 12,000 52 Level Cleveland Center
Tue 04:07:23 PM 41.8328 -82.9058 319° Northwest 342 394 12,100 52 Climbing Cleveland Center
Tue 04:08:18 PM 41.8981 -82.9844 318° Northwest 342 394 12,100  Level Cleveland Center
Tue 04:09:19 PM 41.9669 -83.0694 317° Northwest 342 394 12,100  Level Cleveland Center
Tue 04:10:20 PM 42.0381 -83.1550 318° Northwest 341 392 12,100  Level Cleveland Center
Tue 04:10:30 PM 42.0403 -83.1561 340° North 342 394 12,100  Level Cleveland Center
Tue 04:11:27 PM 42.1158 -83.2333 323° Northwest 296 341 12,100 -482 Level Cleveland Center
Tue 04:12:22 PM 42.1894 -83.2294 North 288 331 11,200 -985 Descending Cleveland Center
Tue 04:12:34 PM 42.1994 -83.2286 North 290 334 11,000 -889 Descending Cleveland Center
Tue 04:13:16 PM 42.2478 -83.2067 19° North 270 311 10,400 -774 Descending Cleveland Center
Tue 04:13:36 PM 42.2658 -83.1900 34° Northeast 273 314 10,200 -618 Descending Cleveland Center
Tue 04:14:24 PM 42.3231 -83.1522 26° Northeast 272 313 9,700 -581 Descending Cleveland Center
Tue 04:14:38 PM 42.3328 -83.1494 12° North 271 312 9,600 -818 Descending Cleveland Center
Tue 04:15:30 PM 42.3911 -83.1136 24° Northeast 247 284 8,800 -774 Descending Cleveland Center
Tue 04:15:40 PM 42.3947 -83.1125 13° North 253 291 8,800 -1,574 Level Cleveland Center
Tue 04:16:31 PM 42.4428 -83.1489 331° Northwest 222 255 7,200 -1,645 Descending Cleveland Center
Tue 04:16:42 PM 42.4414 -83.1603 261° West 235 270 7,100 -1,562 Descending Cleveland Center
Tue 04:17:44 PM 42.3978 -83.2014 215° Southwest 208 239 5,300 -1,838 Descending Cleveland Center
Tue 04:18:33 PM 42.3569 -83.2331 210° Southwest 186 214 3,700 -1,742 Descending Cleveland Center
Tue 04:18:46 PM 42.3531 -83.2364 212° Southwest 194 223 3,500 -873 Descending Cleveland Center
Tue 04:19:28 PM 42.3169 -83.2614 207° Southwest 186 214 2,900 -774 Descending Cleveland Center
Tue 04:19:48 PM 42.3081 -83.2686 211° Southwest 188 216 2,700 -985 Descending Cleveland Center
Tue 04:20:35 PM 42.2725 -83.2947 209° Southwest 148 170 1,800 -871 Descending Cleveland Center
Tue 04:20:50 PM 42.2686 -83.2983 214° Southwest 173 199 1,800 -590 Level Cleveland Center
Tue 04:21:36 PM 42.2389 -83.3211 210° Southwest 135 155 1,200 -677 Descending Cleveland Center
Tue 04:21:52 PM 42.2358 -83.3231 205° Southwest 148 170 1,100 -375 Descending Cleveland Center

Login

Don't have an account? Register now (free) for customized features, flight alerts, and more!